sensor_id;sensor_type;location;lat;lon;timestamp;pressure;altitude;pressure_sealevel;temperature;humidity
29215;BME280;16252;49.816;7.964;2022-12-20T00:01:25;100503.06;;;3.71;64.51
29215;BME280;16252;49.816;7.964;2022-12-20T00:03:52;100527.31;;;3.82;64.40
29215;BME280;16252;49.816;7.964;2022-12-20T00:06:18;100508.91;;;3.79;64.39
29215;BME280;16252;49.816;7.964;2022-12-20T00:08:43;100474.44;;;3.58;64.25
29215;BME280;16252;49.816;7.964;2022-12-20T00:11:09;100465.56;;;3.59;64.24
29215;BME280;16252;49.816;7.964;2022-12-20T00:13:35;100482.88;;;3.68;64.28
29215;BME280;16252;49.816;7.964;2022-12-20T00:18:34;100432.09;;;3.36;64.36
29215;BME280;16252;49.816;7.964;2022-12-20T00:21:01;100511.34;;;3.85;64.38
29215;BME280;16252;49.816;7.964;2022-12-20T00:23:27;100492.22;;;3.77;64.44
29215;BME280;16252;49.816;7.964;2022-12-20T00:28:27;100502.50;;;3.84;64.25
29215;BME280;16252;49.816;7.964;2022-12-20T00:30:53;100405.09;;;3.28;64.30
29215;BME280;16252;49.816;7.964;2022-12-20T00:33:18;100477.28;;;3.76;64.27
29215;BME280;16252;49.816;7.964;2022-12-20T00:35:43;100468.53;;;3.74;64.41
29215;BME280;16252;49.816;7.964;2022-12-20T00:38:09;100452.44;;;3.58;64.30
29215;BME280;16252;49.816;7.964;2022-12-20T00:40:34;100473.88;;;3.72;64.22
29215;BME280;16252;49.816;7.964;2022-12-20T00:42:59;100481.06;;;3.70;64.28
29215;BME280;16252;49.816;7.964;2022-12-20T00:45:24;100458.25;;;3.66;64.23
29215;BME280;16252;49.816;7.964;2022-12-20T00:47:50;100482.44;;;3.79;64.34
29215;BME280;16252;49.816;7.964;2022-12-20T00:50:15;100427.31;;;3.46;64.35
29215;BME280;16252;49.816;7.964;2022-12-20T00:52:40;100463.28;;;3.72;64.33
29215;BME280;16252;49.816;7.964;2022-12-20T00:55:06;100446.06;;;3.62;64.34
29215;BME280;16252;49.816;7.964;2022-12-20T00:57:31;100478.00;;;3.79;64.41
29215;BME280;16252;49.816;7.964;2022-12-20T00:59:56;100429.59;;;3.55;64.25
29215;BME280;16252;49.816;7.964;2022-12-20T01:02:22;100435.47;;;3.62;64.42
29215;BME280;16252;49.816;7.964;2022-12-20T01:04:48;100448.34;;;3.71;64.46
29215;BME280;16252;49.816;7.964;2022-12-20T01:07:13;100440.00;;;3.60;64.47
29215;BME280;16252;49.816;7.964;2022-12-20T01:09:38;100471.13;;;3.75;64.57
29215;BME280;16252;49.816;7.964;2022-12-20T01:12:04;100463.44;;;3.69;64.67
29215;BME280;16252;49.816;7.964;2022-12-20T01:14:29;100482.63;;;3.74;64.53
29215;BME280;16252;49.816;7.964;2022-12-20T01:16:54;100454.81;;;3.64;64.52
29215;BME280;16252;49.816;7.964;2022-12-20T01:19:19;100469.25;;;3.77;64.61
29215;BME280;16252;49.816;7.964;2022-12-20T01:21:45;100492.53;;;3.91;64.51
29215;BME280;16252;49.816;7.964;2022-12-20T01:24:15;100452.66;;;3.74;64.70
29215;BME280;16252;49.816;7.964;2022-12-20T01:26:40;100487.47;;;4.07;64.13
29215;BME280;16252;49.816;7.964;2022-12-20T01:29:06;100452.47;;;3.78;64.14
29215;BME280;16252;49.816;7.964;2022-12-20T01:31:31;100484.41;;;3.96;64.42
29215;BME280;16252;49.816;7.964;2022-12-20T01:33:57;100468.00;;;3.87;64.30
29215;BME280;16252;49.816;7.964;2022-12-20T01:36:26;100484.28;;;3.99;64.52
29215;BME280;16252;49.816;7.964;2022-12-20T01:39:13;100433.19;;;3.75;64.27
29215;BME280;16252;49.816;7.964;2022-12-20T01:41:40;100473.63;;;4.00;64.45
29215;BME280;16252;49.816;7.964;2022-12-20T01:46:51;100423.50;;;3.75;64.40
29215;BME280;16252;49.816;7.964;2022-12-20T01:49:21;100463.75;;;4.04;64.47
29215;BME280;16252;49.816;7.964;2022-12-20T01:55:04;100445.09;;;4.07;64.41
29215;BME280;16252;49.816;7.964;2022-12-20T01:57:41;100412.25;;;3.90;64.42
29215;BME280;16252;49.816;7.964;2022-12-20T02:00:09;100443.53;;;4.03;64.34
29215;BME280;16252;49.816;7.964;2022-12-20T02:02:35;100430.13;;;3.85;64.38
29215;BME280;16252;49.816;7.964;2022-12-20T02:05:01;100452.47;;;4.00;64.48
29215;BME280;16252;49.816;7.964;2022-12-20T02:07:29;100441.72;;;4.03;64.59
29215;BME280;16252;49.816;7.964;2022-12-20T02:09:57;100389.63;;;3.83;64.56
29215;BME280;16252;49.816;7.964;2022-12-20T02:12:31;100336.13;;;3.55;64.57
29215;BME280;16252;49.816;7.964;2022-12-20T02:30:59;100368.44;;;3.83;64.58
29215;BME280;16252;49.816;7.964;2022-12-20T02:33:28;100389.75;;;4.01;64.53
29215;BME280;16252;49.816;7.964;2022-12-20T02:35:53;100389.75;;;4.01;64.71
29215;BME280;16252;49.816;7.964;2022-12-20T02:38:33;100394.59;;;4.11;64.71
29215;BME280;16252;49.816;7.964;2022-12-20T02:41:10;100299.09;;;3.55;64.61
29215;BME280;16252;49.816;7.964;2022-12-20T02:43:41;100383.13;;;4.11;64.69
29215;BME280;16252;49.816;7.964;2022-12-20T02:46:26;100325.63;;;3.74;64.72
29215;BME280;16252;49.816;7.964;2022-12-20T02:48:55;100341.59;;;3.93;64.66
29215;BME280;16252;49.816;7.964;2022-12-20T02:51:22;100314.31;;;3.70;64.51
29215;BME280;16252;49.816;7.964;2022-12-20T02:53:50;100375.25;;;4.09;64.47
29215;BME280;16252;49.816;7.964;2022-12-20T02:56:19;100373.19;;;4.16;64.62
29215;BME280;16252;49.816;7.964;2022-12-20T02:58:57;100371.41;;;4.17;64.69
29215;BME280;16252;49.816;7.964;2022-12-20T03:01:49;100269.84;;;3.58;64.48
29215;BME280;16252;49.816;7.964;2022-12-20T03:04:16;100277.66;;;3.61;64.57
29215;BME280;16252;49.816;7.964;2022-12-20T03:07:14;100358.97;;;4.19;64.64
29215;BME280;16252;49.816;7.964;2022-12-20T03:09:41;100343.66;;;4.05;64.63
29215;BME280;16252;49.816;7.964;2022-12-20T03:12:08;100367.06;;;4.16;64.74
29215;BME280;16252;49.816;7.964;2022-12-20T03:14:36;100378.22;;;4.22;64.65
29215;BME280;16252;49.816;7.964;2022-12-20T03:17:01;100359.34;;;4.09;64.56
29215;BME280;16252;49.816;7.964;2022-12-20T03:19:26;100350.38;;;4.13;64.79
29215;BME280;16252;49.816;7.964;2022-12-20T03:21:52;100333.22;;;4.02;64.60
29215;BME280;16252;49.816;7.964;2022-12-20T03:24:17;100319.13;;;4.01;64.68
29215;BME280;16252;49.816;7.964;2022-12-20T03:26:43;100317.53;;;3.97;64.64
29215;BME280;16252;49.816;7.964;2022-12-20T03:29:09;100225.13;;;3.52;64.60
29215;BME280;16252;49.816;7.964;2022-12-20T03:31:34;100339.28;;;4.24;64.65
29215;BME280;16252;49.816;7.964;2022-12-20T03:34:00;100227.66;;;3.55;64.59
29215;BME280;16252;49.816;7.964;2022-12-20T03:36:25;100318.19;;;4.02;64.72
29215;BME280;16252;49.816;7.964;2022-12-20T03:38:52;100317.53;;;3.97;64.67
29215;BME280;16252;49.816;7.964;2022-12-20T03:41:18;100381.66;;;4.24;64.66
29215;BME280;16252;49.816;7.964;2022-12-20T03:43:45;100274.88;;;3.64;64.69
29215;BME280;16252;49.816;7.964;2022-12-20T03:46:10;100303.31;;;3.79;64.76
29215;BME280;16252;49.816;7.964;2022-12-20T03:48:35;100332.50;;;3.98;64.94
29215;BME280;16252;49.816;7.964;2022-12-20T03:51:01;100335.22;;;3.97;64.80
29215;BME280;16252;49.816;7.964;2022-12-20T03:53:26;100267.59;;;3.48;64.77
29215;BME280;16252;49.816;7.964;2022-12-20T03:55:51;100343.28;;;3.94;64.88
29215;BME280;16252;49.816;7.964;2022-12-20T03:58:17;100364.50;;;4.12;64.91
29215;BME280;16252;49.816;7.964;2022-12-20T04:00:42;100369.75;;;4.14;64.88
29215;BME280;16252;49.816;7.964;2022-12-20T04:03:07;100303.66;;;3.72;64.98
29215;BME280;16252;49.816;7.964;2022-12-20T04:05:32;100301.31;;;3.64;64.90
29215;BME280;16252;49.816;7.964;2022-12-20T04:07:58;100368.25;;;4.08;64.74
29215;BME280;16252;49.816;7.964;2022-12-20T04:10:23;100369.09;;;4.09;64.95
29215;BME280;16252;49.816;7.964;2022-12-20T04:12:49;100280.09;;;3.65;65.19
29215;BME280;16252;49.816;7.964;2022-12-20T04:15:14;100316.22;;;3.87;65.02
29215;BME280;16252;49.816;7.964;2022-12-20T04:17:39;100343.63;;;4.06;65.07
29215;BME280;16252;49.816;7.964;2022-12-20T04:20:06;100341.75;;;4.08;65.08
29215;BME280;16252;49.816;7.964;2022-12-20T04:22:52;100317.72;;;4.13;64.90
29215;BME280;16252;49.816;7.964;2022-12-20T04:25:19;100323.78;;;4.15;65.01
29215;BME280;16252;49.816;7.964;2022-12-20T04:27:45;100327.34;;;4.16;64.91
29215;BME280;16252;49.816;7.964;2022-12-20T04:30:11;100320.25;;;4.16;65.05
29215;BME280;16252;49.816;7.964;2022-12-20T04:32:37;100326.53;;;4.13;64.91
29215;BME280;16252;49.816;7.964;2022-12-20T04:35:03;100218.78;;;3.35;65.00
29215;BME280;16252;49.816;7.964;2022-12-20T04:37:30;100250.66;;;3.53;65.01
29215;BME280;16252;49.816;7.964;2022-12-20T04:39:55;100208.69;;;3.24;65.25
29215;BME280;16252;49.816;7.964;2022-12-20T04:42:21;100354.91;;;4.10;65.02
29215;BME280;16252;49.816;7.964;2022-12-20T04:44:47;100336.53;;;4.07;65.15
29215;BME280;16252;49.816;7.964;2022-12-20T04:47:12;100200.75;;;3.24;65.06
29215;BME280;16252;49.816;7.964;2022-12-20T04:49:37;100284.34;;;3.90;64.92
29215;BME280;16252;49.816;7.964;2022-12-20T04:52:03;100195.78;;;3.37;64.92
29215;BME280;16252;49.816;7.964;2022-12-20T04:54:46;100292.66;;;4.01;65.15
29215;BME280;16252;49.816;7.964;2022-12-20T04:57:12;100314.59;;;4.24;64.94
29215;BME280;16252;49.816;7.964;2022-12-20T04:59:38;100309.44;;;4.21;65.14
29215;BME280;16252;49.816;7.964;2022-12-20T05:02:03;100309.50;;;4.19;64.95
29215;BME280;16252;49.816;7.964;2022-12-20T05:04:29;100289.50;;;4.12;65.17
29215;BME280;16252;49.816;7.964;2022-12-20T05:06:54;100311.84;;;4.25;64.99
29215;BME280;16252;49.816;7.964;2022-12-20T05:09:19;100304.56;;;4.11;64.99
29215;BME280;16252;49.816;7.964;2022-12-20T05:11:45;100152.72;;;3.34;64.96
29215;BME280;16252;49.816;7.964;2022-12-20T05:14:11;100289.47;;;4.13;64.90
29215;BME280;16252;49.816;7.964;2022-12-20T05:16:36;100229.94;;;3.83;64.97
29215;BME280;16252;49.816;7.964;2022-12-20T05:19:02;100272.72;;;4.13;64.88
29215;BME280;16252;49.816;7.964;2022-12-20T05:21:29;100177.59;;;3.50;64.80
29215;BME280;16252;49.816;7.964;2022-12-20T05:24:13;100247.84;;;3.97;64.86
29215;BME280;16252;49.816;7.964;2022-12-20T05:26:57;100209.56;;;3.64;64.74
29215;BME280;16252;49.816;7.964;2022-12-20T05:29:22;100183.19;;;3.63;64.89
29215;BME280;16252;49.816;7.964;2022-12-20T05:31:47;100301.00;;;4.31;64.93
29215;BME280;16252;49.816;7.964;2022-12-20T05:34:13;100182.19;;;3.65;64.92
29215;BME280;16252;49.816;7.964;2022-12-20T05:36:38;100285.97;;;4.32;64.91
29215;BME280;16252;49.816;7.964;2022-12-20T05:39:03;100291.13;;;4.35;64.87
29215;BME280;16252;49.816;7.964;2022-12-20T05:41:30;100253.88;;;4.19;64.92
29215;BME280;16252;49.816;7.964;2022-12-20T05:43:55;100247.63;;;4.20;65.01
29215;BME280;16252;49.816;7.964;2022-12-20T05:46:20;100228.91;;;4.06;64.81
29215;BME280;16252;49.816;7.964;2022-12-20T05:48:46;100203.69;;;3.78;65.04
29215;BME280;16252;49.816;7.964;2022-12-20T05:51:11;100116.00;;;3.28;64.89
29215;BME280;16252;49.816;7.964;2022-12-20T05:53:37;100227.09;;;3.87;65.05
29215;BME280;16252;49.816;7.964;2022-12-20T05:56:02;100191.50;;;3.74;64.99
29215;BME280;16252;49.816;7.964;2022-12-20T05:58:28;100273.72;;;4.29;65.15
29215;BME280;16252;49.816;7.964;2022-12-20T06:00:53;100283.41;;;4.30;65.19
29215;BME280;16252;49.816;7.964;2022-12-20T06:03:20;100291.06;;;4.37;65.22
29215;BME280;16252;49.816;7.964;2022-12-20T06:05:46;100281.41;;;4.36;65.22
29215;BME280;16252;49.816;7.964;2022-12-20T06:08:12;100168.81;;;3.68;65.23
29215;BME280;16252;49.816;7.964;2022-12-20T06:10:39;100259.81;;;4.24;65.29
29215;BME280;16252;49.816;7.964;2022-12-20T06:13:05;100262.25;;;4.29;65.27
29215;BME280;16252;49.816;7.964;2022-12-20T06:15:31;100209.06;;;3.96;65.23
29215;BME280;16252;49.816;7.964;2022-12-20T06:17:56;100124.22;;;3.40;65.10
29215;BME280;16252;49.816;7.964;2022-12-20T06:20:22;100288.41;;;4.37;65.28
29215;BME280;16252;49.816;7.964;2022-12-20T06:22:47;100209.47;;;3.86;65.16
29215;BME280;16252;49.816;7.964;2022-12-20T06:25:13;100259.19;;;4.19;65.25
29215;BME280;16252;49.816;7.964;2022-12-20T06:27:39;100234.03;;;4.09;65.22
29215;BME280;16252;49.816;7.964;2022-12-20T06:30:06;100183.00;;;3.86;65.41
29215;BME280;16252;49.816;7.964;2022-12-20T06:32:32;100169.41;;;3.75;65.31
29215;BME280;16252;49.816;7.964;2022-12-20T06:34:57;100220.81;;;4.09;65.33
29215;BME280;16252;49.816;7.964;2022-12-20T06:37:22;100187.78;;;3.78;65.34
29215;BME280;16252;49.816;7.964;2022-12-20T06:39:48;100210.50;;;4.03;65.21
29215;BME280;16252;49.816;7.964;2022-12-20T06:42:13;100285.97;;;4.51;65.04
29215;BME280;16252;49.816;7.964;2022-12-20T06:44:38;100200.81;;;4.02;65.27
29215;BME280;16252;49.816;7.964;2022-12-20T06:47:04;100235.84;;;4.27;65.18
29215;BME280;16252;49.816;7.964;2022-12-20T06:49:29;100273.78;;;4.47;65.29
29215;BME280;16252;49.816;7.964;2022-12-20T06:51:54;100267.84;;;4.42;65.24
29215;BME280;16252;49.816;7.964;2022-12-20T06:54:20;100278.94;;;4.50;65.34
29215;BME280;16252;49.816;7.964;2022-12-20T06:56:45;100228.25;;;4.20;65.36
29215;BME280;16252;49.816;7.964;2022-12-20T06:59:11;100191.25;;;3.99;65.36
29215;BME280;16252;49.816;7.964;2022-12-20T07:01:36;100167.84;;;3.90;65.36
29215;BME280;16252;49.816;7.964;2022-12-20T07:04:01;100231.13;;;4.34;65.15
29215;BME280;16252;49.816;7.964;2022-12-20T07:06:27;100249.47;;;4.39;65.13
29215;BME280;16252;49.816;7.964;2022-12-20T07:08:53;100228.03;;;4.24;65.05
29215;BME280;16252;49.816;7.964;2022-12-20T07:11:18;100168.97;;;3.84;65.11
29215;BME280;16252;49.816;7.964;2022-12-20T07:13:44;100048.09;;;3.28;65.21
29215;BME280;16252;49.816;7.964;2022-12-20T07:16:09;100257.91;;;4.47;65.27
29215;BME280;16252;49.816;7.964;2022-12-20T07:18:34;100263.34;;;4.44;65.21
29215;BME280;16252;49.816;7.964;2022-12-20T07:21:01;100238.44;;;4.29;65.27
29215;BME280;16252;49.816;7.964;2022-12-20T07:23:27;100125.19;;;3.58;65.32
29215;BME280;16252;49.816;7.964;2022-12-20T07:25:58;100237.28;;;4.34;65.38
29215;BME280;16252;49.816;7.964;2022-12-20T07:28:25;100273.59;;;4.51;65.44
29215;BME280;16252;49.816;7.964;2022-12-20T07:30:51;100184.78;;;4.05;65.36
29215;BME280;16252;49.816;7.964;2022-12-20T07:33:17;100170.84;;;4.01;65.35
29215;BME280;16252;49.816;7.964;2022-12-20T07:35:42;100245.59;;;4.46;65.19
29215;BME280;16252;49.816;7.964;2022-12-20T07:38:10;100256.91;;;4.49;65.36
29215;BME280;16252;49.816;7.964;2022-12-20T07:40:35;100254.47;;;4.45;65.39
29215;BME280;16252;49.816;7.964;2022-12-20T07:43:00;100239.19;;;4.50;65.26
29215;BME280;16252;49.816;7.964;2022-12-20T07:45:26;100244.34;;;4.53;65.27
29215;BME280;16252;49.816;7.964;2022-12-20T07:47:51;100212.53;;;4.36;65.21
29215;BME280;16252;49.816;7.964;2022-12-20T07:50:17;100162.84;;;4.03;65.26
29215;BME280;16252;49.816;7.964;2022-12-20T07:52:44;100156.56;;;4.05;65.26
29215;BME280;16252;49.816;7.964;2022-12-20T07:55:12;100116.03;;;3.84;65.34
29215;BME280;16252;49.816;7.964;2022-12-20T07:57:49;100097.66;;;3.81;65.43
29215;BME280;16252;49.816;7.964;2022-12-20T08:00:16;100107.59;;;3.76;65.32
29215;BME280;16252;49.816;7.964;2022-12-20T08:02:48;100130.44;;;3.98;65.45
29215;BME280;16252;49.816;7.964;2022-12-20T08:05:16;100123.34;;;3.79;65.21
29215;BME280;16252;49.816;7.964;2022-12-20T08:07:43;100225.41;;;4.43;65.42
29215;BME280;16252;49.816;7.964;2022-12-20T08:10:12;100108.41;;;3.78;65.48
29215;BME280;16252;49.816;7.964;2022-12-20T08:12:39;100103.16;;;3.77;65.35
29215;BME280;16252;49.816;7.964;2022-12-20T08:15:06;100143.84;;;4.12;65.39
29215;BME280;16252;49.816;7.964;2022-12-20T08:17:32;100222.88;;;4.59;65.48
29215;BME280;16252;49.816;7.964;2022-12-20T08:19:58;100066.78;;;3.63;65.18
29215;BME280;16252;49.816;7.964;2022-12-20T08:22:24;100095.00;;;3.81;65.32
29215;BME280;16252;49.816;7.964;2022-12-20T08:24:50;100058.69;;;3.66;65.45
29215;BME280;16252;49.816;7.964;2022-12-20T08:27:16;100044.66;;;3.64;65.42
29215;BME280;16252;49.816;7.964;2022-12-20T08:29:41;100044.88;;;3.59;65.47
29215;BME280;16252;49.816;7.964;2022-12-20T08:32:07;100111.66;;;4.02;65.34
29215;BME280;16252;49.816;7.964;2022-12-20T08:34:32;100025.06;;;3.49;65.32
29215;BME280;16252;49.816;7.964;2022-12-20T08:36:59;100108.88;;;4.05;65.42
29215;BME280;16252;49.816;7.964;2022-12-20T08:39:24;100106.38;;;4.02;65.43
29215;BME280;16252;49.816;7.964;2022-12-20T08:41:50;100132.91;;;4.20;65.50
29215;BME280;16252;49.816;7.964;2022-12-20T08:44:15;100071.97;;;3.83;65.30
29215;BME280;16252;49.816;7.964;2022-12-20T08:46:40;100046.16;;;3.69;65.35
29215;BME280;16252;49.816;7.964;2022-12-20T08:49:06;100153.28;;;4.37;65.58
29215;BME280;16252;49.816;7.964;2022-12-20T08:51:31;100049.97;;;3.83;65.41
29215;BME280;16252;49.816;7.964;2022-12-20T08:53:57;100130.47;;;4.34;65.50
29215;BME280;16252;49.816;7.964;2022-12-20T08:56:22;100167.88;;;4.45;65.54
29215;BME280;16252;49.816;7.964;2022-12-20T08:58:47;100027.88;;;3.65;65.40
29215;BME280;16252;49.816;7.964;2022-12-20T09:01:54;100216.00;;;4.91;65.48
29215;BME280;16252;49.816;7.964;2022-12-20T09:04:20;100153.94;;;4.42;65.54
29215;BME280;16252;49.816;7.964;2022-12-20T09:06:46;100198.50;;;4.70;65.51
29215;BME280;16252;49.816;7.964;2022-12-20T09:09:11;100155.63;;;4.43;65.38
29215;BME280;16252;49.816;7.964;2022-12-20T09:11:40;100121.72;;;4.32;65.43
29215;BME280;16252;49.816;7.964;2022-12-20T09:14:06;100156.91;;;4.53;65.28
29215;BME280;16252;49.816;7.964;2022-12-20T09:16:32;100168.06;;;4.60;65.58
29215;BME280;16252;49.816;7.964;2022-12-20T09:19:03;100118.78;;;4.38;65.31
29215;BME280;16252;49.816;7.964;2022-12-20T09:21:40;100164.66;;;4.75;65.36
29215;BME280;16252;49.816;7.964;2022-12-20T09:24:06;100044.84;;;3.97;65.30
29215;BME280;16252;49.816;7.964;2022-12-20T09:26:32;100102.91;;;4.38;65.34
29215;BME280;16252;49.816;7.964;2022-12-20T09:29:04;100110.69;;;4.41;65.41
29215;BME280;16252;49.816;7.964;2022-12-20T09:31:30;100085.66;;;4.29;65.23
29215;BME280;16252;49.816;7.964;2022-12-20T09:34:05;100127.47;;;4.59;65.37
29215;BME280;16252;49.816;7.964;2022-12-20T09:40:31;100194.25;;;5.19;65.39
29215;BME280;16252;49.816;7.964;2022-12-20T09:43:08;100079.94;;;4.56;65.33
29215;BME280;16252;49.816;7.964;2022-12-20T09:49:33;100020.81;;;4.19;65.15
29215;BME280;16252;49.816;7.964;2022-12-20T09:55:01;100184.56;;;5.18;65.12
29215;BME280;16252;49.816;7.964;2022-12-20T10:00:17;100013.03;;;4.16;64.93
29215;BME280;16252;49.816;7.964;2022-12-20T10:02:43;100022.78;;;4.33;65.24
29215;BME280;16252;49.816;7.964;2022-12-20T10:05:18;100008.91;;;4.28;65.31
29215;BME280;16252;49.816;7.964;2022-12-20T10:10:56;100169.59;;;5.35;65.20
29215;BME280;16252;49.816;7.964;2022-12-20T10:13:55;100167.72;;;5.37;65.10
29215;BME280;16252;49.816;7.964;2022-12-20T10:22:18;100149.00;;;5.05;65.03
29215;BME280;16252;49.816;7.964;2022-12-20T10:24:55;100118.44;;;4.98;65.26
29215;BME280;16252;49.816;7.964;2022-12-20T10:27:23;100114.25;;;4.94;65.21
29215;BME280;16252;49.816;7.964;2022-12-20T10:29:50;100023.78;;;4.48;64.96
29215;BME280;16252;49.816;7.964;2022-12-20T10:32:19;100039.22;;;4.57;64.90
29215;BME280;16252;49.816;7.964;2022-12-20T10:37:30;100176.75;;;5.50;64.85
29215;BME280;16252;49.816;7.964;2022-12-20T10:39:55;99991.88;;;4.33;65.06
29215;BME280;16252;49.816;7.964;2022-12-20T10:42:37;100050.28;;;4.83;65.20
29215;BME280;16252;49.816;7.964;2022-12-20T10:45:29;100160.31;;;5.59;65.22
29215;BME280;16252;49.816;7.964;2022-12-20T10:48:02;99999.09;;;4.65;65.04
29215;BME280;16252;49.816;7.964;2022-12-20T10:50:28;100115.75;;;5.33;65.43
29215;BME280;16252;49.816;7.964;2022-12-20T10:55:40;100055.16;;;5.08;65.38
29215;BME280;16252;49.816;7.964;2022-12-20T10:58:17;100155.91;;;5.76;65.40
29215;BME280;16252;49.816;7.964;2022-12-20T11:00:43;99994.06;;;4.76;65.44
29215;BME280;16252;49.816;7.964;2022-12-20T11:03:18;100070.72;;;5.31;65.54
29215;BME280;16252;49.816;7.964;2022-12-20T11:05:53;100053.09;;;5.30;65.60
29215;BME280;16252;49.816;7.964;2022-12-20T11:08:20;100146.44;;;5.88;65.50
29215;BME280;16252;49.816;7.964;2022-12-20T11:10:48;100138.19;;;5.92;65.34
29215;BME280;16252;49.816;7.964;2022-12-20T11:13:25;100023.84;;;5.32;65.36
29215;BME280;16252;49.816;7.964;2022-12-20T11:15:53;100034.53;;;5.46;65.36
29215;BME280;16252;49.816;7.964;2022-12-20T11:18:34;100116.00;;;6.11;65.31
29215;BME280;16252;49.816;7.964;2022-12-20T11:26:50;100107.47;;;6.20;64.85
29215;BME280;16252;49.816;7.964;2022-12-20T11:35:18;100084.16;;;6.25;64.71
29215;BME280;16252;49.816;7.964;2022-12-20T11:42:54;100049.47;;;6.12;64.68
29215;BME280;16252;49.816;7.964;2022-12-20T11:48:42;100067.09;;;6.29;64.88
29215;BME280;16252;49.816;7.964;2022-12-20T11:51:23;100034.81;;;6.21;64.77
29215;BME280;16252;49.816;7.964;2022-12-20T11:53:58;100052.97;;;6.28;64.61
29215;BME280;16252;49.816;7.964;2022-12-20T11:56:36;100062.13;;;6.39;64.65
29215;BME280;16252;49.816;7.964;2022-12-20T11:59:11;100020.75;;;6.19;64.76
29215;BME280;16252;49.816;7.964;2022-12-20T12:01:43;99942.84;;;5.72;64.67
29215;BME280;16252;49.816;7.964;2022-12-20T12:04:14;100052.94;;;6.44;64.58
29215;BME280;16252;49.816;7.964;2022-12-20T12:07:03;100038.22;;;6.39;64.41
29215;BME280;16252;49.816;7.964;2022-12-20T12:09:39;100014.56;;;6.34;64.23
29215;BME280;16252;49.816;7.964;2022-12-20T12:12:37;100056.69;;;6.56;64.20
29215;BME280;16252;49.816;7.964;2022-12-20T12:17:49;100030.13;;;6.40;64.27
29215;BME280;16252;49.816;7.964;2022-12-20T12:23:15;100039.31;;;6.65;64.16
29215;BME280;16252;49.816;7.964;2022-12-20T12:25:43;100014.69;;;6.47;64.55
29215;BME280;16252;49.816;7.964;2022-12-20T12:28:11;100020.50;;;6.54;64.67
29215;BME280;16252;49.816;7.964;2022-12-20T12:30:41;99994.28;;;6.47;64.71
29215;BME280;16252;49.816;7.964;2022-12-20T12:33:19;99976.25;;;6.53;64.29
29215;BME280;16252;49.816;7.964;2022-12-20T12:36:01;99972.53;;;6.55;64.26
29215;BME280;16252;49.816;7.964;2022-12-20T12:38:55;99996.31;;;6.72;64.11
29215;BME280;16252;49.816;7.964;2022-12-20T12:42:05;99963.25;;;6.62;64.37
29215;BME280;16252;49.816;7.964;2022-12-20T12:44:34;99955.09;;;6.65;64.23
29215;BME280;16252;49.816;7.964;2022-12-20T12:47:23;99927.09;;;6.60;64.17
29215;BME280;16252;49.816;7.964;2022-12-20T12:49:51;99963.56;;;6.72;64.38
29215;BME280;16252;49.816;7.964;2022-12-20T12:52:27;99960.34;;;6.81;64.08
29215;BME280;16252;49.816;7.964;2022-12-20T12:54:53;99914.72;;;6.44;64.01
29215;BME280;16252;49.816;7.964;2022-12-20T12:57:18;99924.81;;;6.54;64.11
29215;BME280;16252;49.816;7.964;2022-12-20T12:59:46;99954.34;;;6.78;64.25
29215;BME280;16252;49.816;7.964;2022-12-20T13:09:56;99986.75;;;6.84;64.42
29215;BME280;16252;49.816;7.964;2022-12-20T13:20:33;99967.91;;;6.73;64.41
29215;BME280;16252;49.816;7.964;2022-12-20T13:25:37;99961.19;;;6.67;64.72
29215;BME280;16252;49.816;7.964;2022-12-20T13:30:47;99967.44;;;6.81;65.14
29215;BME280;16252;49.816;7.964;2022-12-20T13:33:45;99948.38;;;6.74;64.74
29215;BME280;16252;49.816;7.964;2022-12-20T13:43:57;99962.81;;;6.84;64.39
29215;BME280;16252;49.816;7.964;2022-12-20T13:49:03;99902.00;;;6.49;64.40
29215;BME280;16252;49.816;7.964;2022-12-20T13:51:30;99913.03;;;6.72;64.57
29215;BME280;16252;49.816;7.964;2022-12-20T13:54:04;99922.25;;;6.81;64.57
29215;BME280;16252;49.816;7.964;2022-12-20T13:56:36;99941.06;;;6.92;64.57
29215;BME280;16252;49.816;7.964;2022-12-20T13:59:15;99925.38;;;6.87;64.47
29215;BME280;16252;49.816;7.964;2022-12-20T14:01:52;99943.44;;;6.97;64.53
29215;BME280;16252;49.816;7.964;2022-12-20T14:04:18;99925.47;;;6.86;64.48
29215;BME280;16252;49.816;7.964;2022-12-20T14:06:51;99924.41;;;6.88;64.63
29215;BME280;16252;49.816;7.964;2022-12-20T14:09:31;99940.66;;;6.98;64.51
29215;BME280;16252;49.816;7.964;2022-12-20T14:12:17;99920.06;;;6.87;64.50
29215;BME280;16252;49.816;7.964;2022-12-20T14:14:44;99946.09;;;6.97;64.77
29215;BME280;16252;49.816;7.964;2022-12-20T14:19:47;99879.31;;;6.58;64.78
29215;BME280;16252;49.816;7.964;2022-12-20T14:22:12;99939.63;;;7.01;64.91
29215;BME280;16252;49.816;7.964;2022-12-20T14:24:40;99872.59;;;6.67;64.88
29215;BME280;16252;49.816;7.964;2022-12-20T14:27:11;99943.22;;;7.14;64.87
29215;BME280;16252;49.816;7.964;2022-12-20T14:29:38;99839.56;;;6.57;64.83
29215;BME280;16252;49.816;7.964;2022-12-20T14:32:04;99913.09;;;7.13;64.70
29215;BME280;16252;49.816;7.964;2022-12-20T14:34:31;99884.03;;;6.96;64.57
29215;BME280;16252;49.816;7.964;2022-12-20T14:40:01;99910.06;;;7.20;64.43
29215;BME280;16252;49.816;7.964;2022-12-20T14:42:32;99910.34;;;7.15;64.40
29215;BME280;16252;49.816;7.964;2022-12-20T14:45:21;99795.41;;;6.40;64.54
29215;BME280;16252;49.816;7.964;2022-12-20T14:48:13;99828.53;;;6.63;64.24
29215;BME280;16252;49.816;7.964;2022-12-20T14:50:40;99902.97;;;6.91;64.20
29215;BME280;16252;49.816;7.964;2022-12-20T14:53:22;99852.38;;;6.64;64.35
29215;BME280;16252;49.816;7.964;2022-12-20T14:55:49;99892.91;;;6.97;64.43
29215;BME280;16252;49.816;7.964;2022-12-20T14:58:29;99759.44;;;6.20;64.27
29215;BME280;16252;49.816;7.964;2022-12-20T15:01:14;99841.44;;;6.69;64.44
29215;BME280;16252;49.816;7.964;2022-12-20T15:03:57;99894.88;;;7.07;64.28
29215;BME280;16252;49.816;7.964;2022-12-20T15:06:42;99792.28;;;6.47;64.06
29215;BME280;16252;49.816;7.964;2022-12-20T15:09:08;99799.31;;;6.34;64.34
29215;BME280;16252;49.816;7.964;2022-12-20T15:11:34;99888.31;;;6.99;64.41